Time;durP1;ratioP1;P1;durP2;ratioP2;P2;SDS_P1;SDS_P2;PMS_P1;PMS_P2;Temp;Humidity;BMP_temperature;BMP_pressure;BME280_temperature;BME280_humidity;BME280_pressure;Samples;Min_cycle;Max_cycle;Signal;HPM_P1;HPM_P2
2023/08/31 00:01:09;;;;;;;5.10;3.20;;;19.40;90.40;;;;;;5070567;28;20472;-77
2023/08/31 00:03:35;;;;;;;5.32;3.50;;;19.40;90.40;;;;;;5070969;28;20033;-77
2023/08/31 00:06:04;;;;;;;4.75;2.80;;;19.40;90.40;;;;;;5074062;28;20047;-77
2023/08/31 00:08:30;;;;;;;4.95;3.17;;;19.40;90.40;;;;;;5072746;28;20029;-78
2023/08/31 00:10:57;;;;;;;5.05;3.00;;;19.40;90.40;;;;;;5072795;28;20021;-78
2023/08/31 00:13:22;;;;;;;5.60;3.42;;;19.40;90.40;;;;;;5058132;28;20141;-78
2023/08/31 00:15:48;;;;;;;5.13;2.85;;;19.40;90.40;;;;;;5079063;28;20487;-79
2023/08/31 00:18:16;;;;;;;4.95;3.10;;;19.40;90.40;;;;;;5079447;28;20036;-80
2023/08/31 00:20:41;;;;;;;5.43;3.17;;;19.40;90.40;;;;;;5078231;28;20032;-79
2023/08/31 00:23:07;;;;;;;5.00;2.92;;;19.40;90.40;;;;;;5079588;28;20099;-79
2023/08/31 00:25:32;;;;;;;5.30;2.90;;;19.40;90.40;;;;;;5079171;28;20052;-79
2023/08/31 00:28:04;;;;;;;5.18;3.08;;;19.40;90.30;;;;;;5077791;28;20457;-78
2023/08/31 00:30:30;;;;;;;4.60;2.80;;;19.40;90.30;;;;;;5079722;28;20393;-79
2023/08/31 00:33:00;;;;;;;5.60;3.00;;;19.40;90.20;;;;;;5061330;28;20021;-79
2023/08/31 00:35:27;;;;;;;6.03;2.97;;;19.40;90.30;;;;;;5078485;28;20506;-80
2023/08/31 00:37:58;;;;;;;4.25;2.80;;;19.40;90.20;;;;;;5079390;28;20025;-79
2023/08/31 00:40:30;;;;;;;4.97;3.03;;;19.40;90.20;;;;;;5060344;28;20036;-79
2023/08/31 00:42:56;;;;;;;4.38;2.85;;;19.40;90.30;;;;;;5060925;28;20449;-79
2023/08/31 00:45:22;;;;;;;4.90;2.83;;;19.30;90.30;;;;;;5078150;28;20100;-80
2023/08/31 00:47:49;;;;;;;5.15;3.00;;;19.30;90.30;;;;;;5060183;28;20044;-79
2023/08/31 00:50:15;;;;;;;4.25;2.60;;;19.30;90.50;;;;;;5060375;28;20527;-79
2023/08/31 00:52:44;;;;;;;5.90;3.40;;;19.30;90.40;;;;;;5076557;28;20119;-79
2023/08/31 00:55:10;;;;;;;4.80;2.97;;;19.30;90.40;;;;;;5078079;28;20021;-78
2023/08/31 00:57:35;;;;;;;4.32;2.67;;;19.30;90.40;;;;;;5059898;28;20477;-78
2023/08/31 01:00:01;;;;;;;5.13;2.80;;;19.30;90.30;;;;;;5077536;28;20031;-78
2023/08/31 01:02:45;;;;;;;4.13;2.70;;;19.30;90.40;;;;;;5078925;28;20100;-78
2023/08/31 01:05:31;;;;;;;4.88;2.95;;;19.40;90.40;;;;;;5060033;28;20029;-78
2023/08/31 01:08:12;;;;;;;4.82;2.85;;;19.30;90.40;;;;;;5078503;28;20025;-78
2023/08/31 01:11:16;;;;;;;4.10;2.70;;;19.30;90.70;;;;;;5060138;28;20031;-79
2023/08/31 01:13:48;;;;;;;5.28;3.13;;;19.30;90.50;;;;;;5076943;28;20020;-79
2023/08/31 01:16:15;;;;;;;5.97;3.50;;;19.30;90.40;;;;;;5059500;28;20024;-78
2023/08/31 01:18:42;;;;;;;4.97;2.90;;;19.30;90.40;;;;;;5077586;28;20032;-78
2023/08/31 01:21:21;;;;;;;4.00;2.70;;;19.30;90.40;;;;;;5059361;28;20020;-78
2023/08/31 01:23:51;;;;;;;5.25;3.03;;;19.40;90.40;;;;;;5058513;28;20021;-78
2023/08/31 01:26:17;;;;;;;4.97;2.92;;;19.40;90.40;;;;;;5058423;28;20488;-79
2023/08/31 01:28:43;;;;;;;4.97;2.90;;;19.40;90.40;;;;;;5075087;28;20031;-78
2023/08/31 01:31:09;;;;;;;5.18;2.85;;;19.40;90.30;;;;;;5076789;28;20024;-79
2023/08/31 01:33:35;;;;;;;5.57;2.70;;;19.40;90.30;;;;;;5076055;28;20379;-78
2023/08/31 01:36:05;;;;;;;4.70;2.90;;;19.40;90.30;;;;;;5075118;28;20020;-79
2023/08/31 01:38:34;;;;;;;4.57;2.65;;;19.40;90.30;;;;;;5076576;28;20432;-78
2023/08/31 01:41:13;;;;;;;5.13;3.00;;;19.30;90.30;;;;;;5058119;28;20431;-78
2023/08/31 01:43:41;;;;;;;4.55;2.80;;;19.30;90.30;;;;;;5058243;28;20024;-78
2023/08/31 01:46:07;;;;;;;4.30;2.70;;;19.30;90.30;;;;;;5058201;28;20021;-78
2023/08/31 01:48:41;;;;;;;4.07;2.60;;;19.30;90.40;;;;;;5074880;28;20137;-78
2023/08/31 01:51:08;;;;;;;4.78;2.88;;;19.30;90.40;;;;;;5074960;28;20071;-78
2023/08/31 01:53:34;;;;;;;4.70;2.60;;;19.30;90.40;;;;;;5057880;28;20081;-78
2023/08/31 01:56:00;;;;;;;4.50;2.85;;;19.30;90.40;;;;;;5076277;28;20028;-78
2023/08/31 01:58:25;;;;;;;4.93;2.70;;;19.30;90.40;;;;;;5075200;28;20043;-78
2023/08/31 02:00:51;;;;;;;4.43;2.50;;;19.30;90.40;;;;;;5073635;28;20123;-78
2023/08/31 02:03:16;;;;;;;4.57;2.72;;;19.30;90.40;;;;;;5075263;28;20020;-78
2023/08/31 02:05:42;;;;;;;4.10;2.50;;;19.30;90.40;;;;;;5074995;28;20624;-78
2023/08/31 02:08:07;;;;;;;4.80;3.00;;;19.30;90.40;;;;;;5075006;28;20477;-78
2023/08/31 02:10:33;;;;;;;5.00;2.90;;;19.30;90.50;;;;;;5075542;28;20025;-80
2023/08/31 02:12:59;;;;;;;5.28;2.90;;;19.30;90.40;;;;;;5073903;28;20119;-78
2023/08/31 02:15:24;;;;;;;4.03;2.47;;;19.30;90.50;;;;;;5073821;28;20067;-78
2023/08/31 02:17:50;;;;;;;4.07;2.50;;;19.30;90.40;;;;;;5073359;28;20489;-78
2023/08/31 02:20:15;;;;;;;4.88;2.85;;;19.30;90.40;;;;;;5074954;28;20028;-79
2023/08/31 02:22:41;;;;;;;4.70;2.70;;;19.40;90.40;;;;;;5075044;28;20078;-78
2023/08/31 02:25:07;;;;;;;4.50;2.53;;;19.40;90.40;;;;;;5073431;28;20052;-78
2023/08/31 02:27:32;;;;;;;3.67;2.42;;;19.40;90.40;;;;;;5074866;28;20747;-78
2023/08/31 02:29:58;;;;;;;3.33;2.40;;;19.30;90.30;;;;;;5075001;28;20453;-79
2023/08/31 02:32:23;;;;;;;3.67;2.47;;;19.30;90.30;;;;;;5074911;28;20027;-78
2023/08/31 02:34:50;;;;;;;3.28;2.20;;;19.30;90.20;;;;;;5072184;28;20020;-78
2023/08/31 02:37:16;;;;;;;4.18;2.40;;;19.30;90.30;;;;;;5072912;28;20123;-78
2023/08/31 02:39:41;;;;;;;4.85;2.70;;;19.30;90.30;;;;;;5073270;28;20123;-78
2023/08/31 02:42:07;;;;;;;4.43;2.40;;;19.30;90.30;;;;;;5074432;28;20013;-79
2023/08/31 02:44:33;;;;;;;4.38;2.50;;;19.30;90.40;;;;;;5074082;28;20066;-78
2023/08/31 02:46:58;;;;;;;4.30;2.50;;;19.30;90.40;;;;;;5074141;28;20024;-78
2023/08/31 02:49:24;;;;;;;5.38;2.38;;;19.20;90.40;;;;;;5074222;28;20400;-78
2023/08/31 02:51:49;;;;;;;3.50;2.30;;;19.30;90.40;;;;;;5074240;28;20029;-79
2023/08/31 02:54:15;;;;;;;3.88;2.55;;;19.20;90.40;;;;;;5073907;28;20027;-78
2023/08/31 02:56:42;;;;;;;3.58;2.30;;;19.30;90.40;;;;;;5087139;28;20047;-78
2023/08/31 02:59:07;;;;;;;4.78;2.78;;;19.30;90.40;;;;;;5085351;28;20032;-78
2023/08/31 03:01:33;;;;;;;4.45;2.55;;;19.20;90.40;;;;;;5075720;28;20066;-78
2023/08/31 03:03:58;;;;;;;4.05;2.40;;;19.20;90.40;;;;;;5075284;28;20031;-78
2023/08/31 03:06:25;;;;;;;4.78;2.80;;;19.30;90.40;;;;;;5093992;28;20431;-78
2023/08/31 03:08:51;;;;;;;3.30;2.30;;;19.20;90.40;;;;;;5075471;28;20396;-78
2023/08/31 03:11:16;;;;;;;4.22;2.70;;;19.20;90.70;;;;;;5075672;28;20023;-78
2023/08/31 03:13:42;;;;;;;3.22;2.33;;;19.20;90.40;;;;;;5075677;28;20032;-78
2023/08/31 03:16:08;;;;;;;3.30;2.10;;;19.30;90.50;;;;;;5093968;28;20032;-78
2023/08/31 03:18:33;;;;;;;3.67;2.40;;;19.30;90.40;;;;;;5093777;28;20457;-79
2023/08/31 03:20:59;;;;;;;3.25;2.08;;;19.30;90.40;;;;;;5075749;28;20500;-78
2023/08/31 03:23:25;;;;;;;3.80;2.28;;;19.30;90.40;;;;;;5093513;28;20142;-77
2023/08/31 03:25:50;;;;;;;3.67;2.30;;;19.30;90.40;;;;;;5075456;28;20473;-78
2023/08/31 03:28:16;;;;;;;3.58;2.35;;;19.30;90.30;;;;;;5075352;28;20019;-78
2023/08/31 03:30:44;;;;;;;3.90;2.65;;;19.30;90.30;;;;;;5093596;28;20024;-78
2023/08/31 03:33:10;;;;;;;3.83;2.55;;;19.30;90.30;;;;;;5075395;28;20489;-78
2023/08/31 03:35:36;;;;;;;4.53;2.53;;;19.30;90.30;;;;;;5093014;28;20039;-78
2023/08/31 03:38:01;;;;;;;3.45;2.30;;;19.30;90.30;;;;;;5075046;28;20503;-78
2023/08/31 03:40:27;;;;;;;3.30;2.28;;;19.30;90.30;;;;;;5075261;28;20024;-78
2023/08/31 03:42:53;;;;;;;3.85;2.30;;;19.20;90.30;;;;;;5075179;28;20020;-78
2023/08/31 03:45:20;;;;;;;3.88;2.45;;;19.20;90.30;;;;;;5093073;28;20421;-78
2023/08/31 03:47:45;;;;;;;3.72;2.20;;;19.30;90.40;;;;;;5075871;28;20099;-79
2023/08/31 03:50:11;;;;;;;3.92;2.25;;;19.20;90.60;;;;;;5095539;28;20115;-78
2023/08/31 03:52:36;;;;;;;4.32;2.60;;;19.20;90.30;;;;;;5095483;28;20035;-79
2023/08/31 03:55:02;;;;;;;3.25;2.08;;;19.20;90.40;;;;;;5077138;28;20032;-79
2023/08/31 03:57:27;;;;;;;4.13;2.15;;;19.30;90.40;;;;;;5077794;28;20032;-79
2023/08/31 03:59:53;;;;;;;3.70;2.25;;;19.20;90.40;;;;;;5096584;28;20032;-80
2023/08/31 04:02:18;;;;;;;3.83;2.30;;;19.30;90.40;;;;;;5096261;28;20029;-78
2023/08/31 04:04:44;;;;;;;5.28;2.78;;;19.20;90.40;;;;;;5078328;28;20028;-79
2023/08/31 04:07:09;;;;;;;3.22;2.30;;;19.20;90.40;;;;;;5056712;28;20021;-78
2023/08/31 04:09:35;;;;;;;3.80;2.63;;;19.20;90.40;;;;;;5074762;28;20104;-79
2023/08/31 04:12:00;;;;;;;3.78;2.40;;;19.20;90.40;;;;;;5074930;28;20416;-79
2023/08/31 04:14:27;;;;;;;4.07;2.40;;;19.20;90.40;;;;;;5074940;28;20033;-79
2023/08/31 04:16:54;;;;;;;4.05;2.28;;;19.30;90.50;;;;;;5074448;28;20021;-79
2023/08/31 04:19:19;;;;;;;3.67;2.33;;;19.30;90.40;;;;;;5056802;28;20020;-78
2023/08/31 04:21:45;;;;;;;5.43;2.20;;;19.20;90.40;;;;;;5056645;28;20017;-78
2023/08/31 04:24:10;;;;;;;3.42;2.20;;;19.30;90.40;;;;;;5074497;28;20032;-78
2023/08/31 04:26:36;;;;;;;3.85;2.25;;;19.30;90.40;;;;;;5055232;28;20020;-81
2023/08/31 04:29:05;;;;;;;3.28;2.17;;;19.30;90.30;;;;;;5054351;28;20105;-81
2023/08/31 04:31:33;;;;;;;3.88;2.30;;;19.20;90.20;;;;;;5062970;28;20032;-81
2023/08/31 04:33:58;;;;;;;5.20;2.60;;;19.30;90.20;;;;;;5073596;28;20032;-81
2023/08/31 04:36:25;;;;;;;3.83;2.50;;;19.30;90.30;;;;;;5068899;28;20043;-82
2023/08/31 04:38:51;;;;;;;3.92;2.50;;;19.30;90.40;;;;;;5071346;28;20028;-80
2023/08/31 04:41:16;;;;;;;3.30;2.22;;;19.20;90.40;;;;;;5053290;28;20025;-80
2023/08/31 04:43:42;;;;;;;4.32;2.60;;;19.30;90.40;;;;;;5053776;28;20054;-81
2023/08/31 04:46:08;;;;;;;4.22;2.20;;;19.20;90.40;;;;;;5053883;28;20112;-81
2023/08/31 04:48:33;;;;;;;3.67;2.10;;;19.20;90.40;;;;;;5071603;28;20027;-79
2023/08/31 04:50:59;;;;;;;3.40;2.20;;;19.20;90.40;;;;;;5071265;28;20515;-81
2023/08/31 04:53:25;;;;;;;2.88;2.05;;;19.20;90.40;;;;;;5071798;28;20033;-80
2023/08/31 04:55:51;;;;;;;4.10;2.35;;;19.20;90.40;;;;;;5062847;28;20110;-84
2023/08/31 04:58:16;;;;;;;3.78;2.17;;;19.10;90.30;;;;;;5091960;28;20046;-79
2023/08/31 05:00:44;;;;;;;4.53;2.40;;;19.20;90.40;;;;;;5075966;28;20396;-81
2023/08/31 05:03:10;;;;;;;4.05;2.40;;;19.20;90.40;;;;;;5074658;28;20495;-78
2023/08/31 05:05:35;;;;;;;4.13;2.35;;;19.20;90.40;;;;;;5073266;28;20028;-79
2023/08/31 05:08:01;;;;;;;3.67;2.40;;;19.10;90.30;;;;;;5064940;28;20028;-78
2023/08/31 05:10:27;;;;;;;4.68;2.45;;;19.20;90.40;;;;;;5087631;28;20030;-83
2023/08/31 05:12:52;;;;;;;3.53;2.10;;;19.20;90.40;;;;;;5087176;28;20029;-80
2023/08/31 05:15:18;;;;;;;4.03;2.63;;;19.20;90.50;;;;;;5074478;28;20036;-79
2023/08/31 05:17:43;;;;;;;3.50;2.40;;;19.20;90.50;;;;;;5074700;28;20032;-79
2023/08/31 05:20:09;;;;;;;3.75;2.50;;;19.20;90.40;;;;;;5086575;28;20032;-78
2023/08/31 05:22:35;;;;;;;4.25;2.50;;;19.30;90.40;;;;;;5066305;28;20012;-78
2023/08/31 05:25:01;;;;;;;4.45;2.75;;;19.30;90.40;;;;;;5087696;28;20738;-79
2023/08/31 05:27:27;;;;;;;4.00;2.50;;;19.30;90.40;;;;;;5083475;28;20031;-78
2023/08/31 05:29:52;;;;;;;4.95;2.65;;;19.20;90.20;;;;;;5086287;28;20040;-80
2023/08/31 05:32:18;;;;;;;5.32;2.50;;;19.30;90.30;;;;;;5067299;28;20496;-79
2023/08/31 05:34:43;;;;;;;5.15;3.08;;;19.20;90.30;;;;;;5067381;28;20035;-80
2023/08/31 05:37:09;;;;;;;4.30;2.70;;;19.20;90.30;;;;;;5076676;28;20103;-81
2023/08/31 05:39:34;;;;;;;4.07;2.50;;;19.30;90.30;;;;;;5075450;28;20497;-79
2023/08/31 05:42:00;;;;;;;4.88;2.80;;;19.20;90.40;;;;;;5072659;28;20090;-80
2023/08/31 05:44:26;;;;;;;3.65;2.55;;;19.20;90.40;;;;;;5072424;28;20021;-77
2023/08/31 05:46:51;;;;;;;4.53;3.00;;;19.20;90.40;;;;;;5082774;28;20455;-81
2023/08/31 05:49:17;;;;;;;4.43;3.05;;;19.20;90.40;;;;;;5062440;28;20031;-77
2023/08/31 05:51:43;;;;;;;4.57;2.70;;;19.20;90.40;;;;;;5081599;28;20032;-79
2023/08/31 05:54:11;;;;;;;5.00;2.85;;;19.10;90.40;;;;;;5053321;28;20020;-78
2023/08/31 05:56:39;;;;;;;4.82;3.05;;;19.20;90.40;;;;;;5052662;28;20055;-78
2023/08/31 05:59:05;;;;;;;4.35;2.85;;;19.20;90.40;;;;;;5053282;28;20048;-77
2023/08/31 06:01:31;;;;;;;5.30;3.17;;;19.10;90.30;;;;;;5060061;28;20024;-78
2023/08/31 06:03:56;;;;;;;5.45;3.05;;;19.10;90.30;;;;;;5082573;28;20016;-78
2023/08/31 06:06:22;;;;;;;4.38;2.85;;;19.20;90.40;;;;;;5091255;28;20032;-78
2023/08/31 06:08:48;;;;;;;4.65;3.10;;;19.20;90.40;;;;;;5092701;28;20024;-81
2023/08/31 06:11:13;;;;;;;5.03;3.30;;;19.20;90.40;;;;;;5073612;28;20028;-79
2023/08/31 06:13:39;;;;;;;5.00;3.20;;;19.20;90.40;;;;;;5092850;28;20035;-79
2023/08/31 06:16:05;;;;;;;4.95;3.28;;;19.20;90.40;;;;;;5092617;28;20028;-79
2023/08/31 06:18:31;;;;;;;5.22;3.25;;;19.20;90.40;;;;;;5093309;28;20028;-79
2023/08/31 06:20:56;;;;;;;5.35;3.42;;;19.20;90.40;;;;;;5074988;28;20082;-79
2023/08/31 06:23:22;;;;;;;5.03;3.22;;;19.30;90.30;;;;;;5108912;28;20437;-79
2023/08/31 06:25:47;;;;;;;5.28;3.42;;;19.20;90.30;;;;;;5088431;28;20024;-80
2023/08/31 06:28:13;;;;;;;5.15;3.40;;;19.20;90.30;;;;;;5100648;28;20481;-78
2023/08/31 06:30:38;;;;;;;5.30;3.42;;;19.30;90.30;;;;;;5073810;28;20031;-81
2023/08/31 06:33:04;;;;;;;5.20;3.75;;;19.30;90.30;;;;;;5074288;28;20029;-80
2023/08/31 06:35:31;;;;;;;5.30;3.50;;;19.20;90.30;;;;;;5092500;28;20020;-79
2023/08/31 06:37:57;;;;;;;5.13;3.58;;;19.10;90.30;;;;;;5092007;28;20028;-79
2023/08/31 06:40:23;;;;;;;4.88;3.38;;;19.20;90.30;;;;;;5073676;28;20073;-79
2023/08/31 06:42:49;;;;;;;5.95;3.85;;;19.20;90.40;;;;;;5091232;28;20019;-81
2023/08/31 06:45:14;;;;;;;6.13;3.90;;;19.20;90.30;;;;;;5091450;28;20024;-80
2023/08/31 06:47:40;;;;;;;5.50;3.90;;;19.30;90.30;;;;;;5091934;28;20024;-80
2023/08/31 06:50:06;;;;;;;5.50;3.90;;;19.30;90.30;;;;;;5092674;28;20396;-79
2023/08/31 06:52:32;;;;;;;5.72;4.05;;;19.20;90.30;;;;;;5073309;28;20032;-81
2023/08/31 06:54:58;;;;;;;6.00;4.00;;;19.20;90.30;;;;;;5073157;28;20028;-78
2023/08/31 06:57:24;;;;;;;5.40;3.58;;;19.20;90.30;;;;;;5071723;28;20032;-78
2023/08/31 06:59:50;;;;;;;6.00;4.05;;;19.20;90.30;;;;;;5072949;28;20157;-80
2023/08/31 07:02:16;;;;;;;5.68;3.58;;;19.20;90.40;;;;;;5072990;28;20122;-78
2023/08/31 07:04:41;;;;;;;6.30;4.03;;;19.20;90.30;;;;;;5080258;28;20036;-80
2023/08/31 07:07:08;;;;;;;5.68;3.95;;;19.20;90.30;;;;;;5053777;28;20032;-79
2023/08/31 07:09:34;;;;;;;7.03;4.18;;;19.30;90.40;;;;;;5071438;28;20017;-79
2023/08/31 07:12:01;;;;;;;5.28;3.67;;;19.20;90.30;;;;;;5053448;28;20031;-79
2023/08/31 07:14:26;;;;;;;5.25;3.65;;;19.30;90.30;;;;;;5071044;28;20046;-78
2023/08/31 07:16:52;;;;;;;6.13;4.03;;;19.30;90.20;;;;;;5071553;28;20032;-79
2023/08/31 07:19:17;;;;;;;6.05;4.20;;;19.30;90.20;;;;;;5084185;28;20024;-79
2023/08/31 07:21:43;;;;;;;5.80;4.07;;;19.30;90.20;;;;;;5078592;28;20024;-78
2023/08/31 07:24:08;;;;;;;5.65;3.92;;;19.30;90.20;;;;;;5074999;28;20016;-81
2023/08/31 07:26:34;;;;;;;5.90;4.18;;;19.30;90.10;;;;;;5073859;28;20124;-80
2023/08/31 07:29:04;;;;;;;6.38;4.40;;;19.30;90.10;;;;;;5074037;28;20102;-82
2023/08/31 07:31:30;;;;;;;6.00;4.43;;;19.30;90.10;;;;;;5074597;28;20035;-79
2023/08/31 07:33:55;;;;;;;5.70;4.05;;;19.30;90.20;;;;;;5074036;28;20028;-80
2023/08/31 07:36:21;;;;;;;5.57;4.10;;;19.30;90.20;;;;;;5092773;28;20035;-81
2023/08/31 07:38:46;;;;;;;5.38;4.00;;;19.20;90.20;;;;;;5074895;28;20414;-79
2023/08/31 07:41:12;;;;;;;5.32;3.80;;;19.30;90.20;;;;;;5072650;28;20037;-82
2023/08/31 07:43:37;;;;;;;6.85;4.10;;;19.20;90.20;;;;;;5060444;28;20034;-79
2023/08/31 07:46:03;;;;;;;7.68;4.65;;;19.20;90.30;;;;;;5075769;28;20090;-82
2023/08/31 07:58:42;;;;;;;7.40;5.20;;;19.20;90.30;;;;;;5049456;28;20071;-79
2023/08/31 08:01:08;;;;;;;6.20;4.80;;;19.20;90.30;;;;;;5032860;28;20041;-79
2023/08/31 08:03:33;;;;;;;6.57;5.18;;;19.10;90.30;;;;;;5034931;28;20021;-80
2023/08/31 08:05:59;;;;;;;7.28;5.63;;;19.20;90.30;;;;;;5051636;28;20083;-79
2023/08/31 08:08:25;;;;;;;7.75;5.05;;;19.20;90.30;;;;;;5034374;28;20021;-81
2023/08/31 08:10:54;;;;;;;6.85;5.28;;;19.20;90.30;;;;;;5033954;28;20025;-81
2023/08/31 08:13:20;;;;;;;8.45;5.20;;;19.20;90.20;;;;;;5051225;28;20771;-80
2023/08/31 08:15:46;;;;;;;7.32;5.05;;;19.20;90.20;;;;;;5033071;28;20053;-78
2023/08/31 08:18:11;;;;;;;6.82;4.68;;;19.20;90.20;;;;;;5032899;28;20078;-80
2023/08/31 08:20:37;;;;;;;7.53;4.85;;;19.20;90.10;;;;;;5032714;28;20033;-77
2023/08/31 08:23:02;;;;;;;6.85;4.93;;;19.30;90.10;;;;;;5051036;28;20025;-79
2023/08/31 08:25:28;;;;;;;7.35;5.15;;;19.30;90.10;;;;;;5032739;28;20032;-81
2023/08/31 08:27:53;;;;;;;7.43;5.20;;;19.30;90.10;;;;;;5032637;28;20050;-81
2023/08/31 08:30:19;;;;;;;9.43;5.32;;;19.30;90.10;;;;;;5050478;28;20074;-83
2023/08/31 08:32:45;;;;;;;6.78;5.03;;;19.30;90.10;;;;;;5032832;28;20033;-79
2023/08/31 08:35:10;;;;;;;6.53;4.90;;;19.30;90.10;;;;;;5035712;28;20025;-78
2023/08/31 08:37:36;;;;;;;6.75;5.32;;;19.30;90.10;;;;;;5035783;28;20043;-80
2023/08/31 08:40:03;;;;;;;6.95;4.75;;;19.30;90.10;;;;;;5035916;28;20124;-80
2023/08/31 08:42:31;;;;;;;7.35;5.88;;;19.30;90.10;;;;;;5035591;28;20021;-78
2023/08/31 08:44:57;;;;;;;6.82;5.07;;;19.40;90.20;;;;;;5035274;28;20029;-81
2023/08/31 08:47:25;;;;;;;6.65;5.20;;;19.30;90.20;;;;;;5035595;28;20035;-79
2023/08/31 08:49:51;;;;;;;7.25;5.03;;;19.20;90.20;;;;;;5034141;28;20530;-78
2023/08/31 08:52:17;;;;;;;8.48;5.45;;;19.30;90.20;;;;;;5035432;28;20037;-79
2023/08/31 08:54:43;;;;;;;6.22;4.90;;;19.20;90.20;;;;;;5035218;28;20079;-78
2023/08/31 08:57:08;;;;;;;7.20;5.47;;;19.20;90.20;;;;;;5053086;28;20045;-80
2023/08/31 08:59:34;;;;;;;6.45;4.97;;;19.30;90.40;;;;;;5039017;28;20024;-78
2023/08/31 09:02:00;;;;;;;6.97;5.50;;;19.30;90.20;;;;;;5039370;28;20021;-82
2023/08/31 09:04:25;;;;;;;7.15;5.68;;;19.30;90.40;;;;;;5034718;28;20025;-79
2023/08/31 09:06:51;;;;;;;6.30;4.95;;;19.30;90.10;;;;;;5035066;28;20021;-79
2023/08/31 09:09:17;;;;;;;7.45;6.00;;;19.40;90.20;;;;;;5034790;28;20025;-78
2023/08/31 09:11:44;;;;;;;6.95;5.25;;;19.30;90.10;;;;;;5034634;28;20417;-79
2023/08/31 09:14:18;;;;;;;6.32;5.10;;;19.30;90.00;;;;;;5034518;28;20091;-78
2023/08/31 09:16:46;;;;;;;7.55;5.78;;;19.40;90.00;;;;;;5052940;28;20135;-79
2023/08/31 09:19:27;;;;;;;7.05;5.65;;;19.40;90.00;;;;;;5052111;28;20026;-78
2023/08/31 09:21:56;;;;;;;7.07;5.50;;;19.40;89.90;;;;;;5034476;28;20037;-79
2023/08/31 09:24:23;;;;;;;6.85;5.20;;;19.50;89.80;;;;;;5033935;28;20028;-78
2023/08/31 09:26:54;;;;;;;6.70;5.22;;;19.50;89.60;;;;;;5034431;28;20555;-79
2023/08/31 09:29:20;;;;;;;6.85;5.53;;;19.50;89.50;;;;;;5034213;28;20086;-79
2023/08/31 09:31:47;;;;;;;6.80;5.35;;;19.50;89.40;;;;;;5034033;28;20389;-79
2023/08/31 09:34:16;;;;;;;7.07;5.38;;;19.60;89.40;;;;;;5033841;28;20044;-79
2023/08/31 09:36:42;;;;;;;6.78;5.55;;;19.60;89.40;;;;;;5051808;28;20036;-79
2023/08/31 09:39:10;;;;;;;6.50;5.10;;;19.60;89.30;;;;;;5051395;28;20400;-80
2023/08/31 09:41:51;;;;;;;6.00;5.00;;;19.60;89.30;;;;;;5033923;28;20033;-79
2023/08/31 09:44:19;;;;;;;6.68;5.25;;;19.60;89.20;;;;;;5051353;28;20036;-79
2023/08/31 09:46:45;;;;;;;7.93;5.65;;;19.60;89.20;;;;;;5033546;28;20021;-80
2023/08/31 09:49:14;;;;;;;6.30;5.03;;;19.70;89.20;;;;;;5051241;28;20496;-80
2023/08/31 09:51:43;;;;;;;6.88;5.45;;;19.80;89.10;;;;;;5033450;28;20119;-81
2023/08/31 09:54:12;;;;;;;6.93;5.00;;;19.80;89.10;;;;;;5033106;28;20024;-82
2023/08/31 09:56:41;;;;;;;6.93;5.20;;;19.70;89.10;;;;;;5050616;28;20040;-78
2023/08/31 09:59:07;;;;;;;7.13;5.40;;;19.70;89.10;;;;;;5033528;28;20036;-79
2023/08/31 10:01:33;;;;;;;6.28;4.88;;;19.70;89.20;;;;;;5033087;28;20181;-80
2023/08/31 10:03:59;;;;;;;7.05;5.38;;;19.70;89.20;;;;;;5033265;28;20577;-79
2023/08/31 10:06:26;;;;;;;6.88;5.18;;;19.70;89.20;;;;;;5050728;28;20048;-82
2023/08/31 10:08:53;;;;;;;6.72;5.03;;;19.70;89.00;;;;;;5033209;28;20021;-78
2023/08/31 10:11:19;;;;;;;6.63;5.40;;;19.80;89.10;;;;;;5033209;28;20115;-79
2023/08/31 10:13:48;;;;;;;6.40;4.82;;;19.80;88.90;;;;;;5050496;28;20485;-80
2023/08/31 10:16:15;;;;;;;5.85;4.75;;;19.80;88.80;;;;;;5032626;28;20432;-78
2023/08/31 10:18:41;;;;;;;6.32;4.88;;;19.80;88.80;;;;;;5032589;28;20040;-78
2023/08/31 10:21:06;;;;;;;6.32;4.93;;;19.80;88.80;;;;;;5032623;28;20025;-79
2023/08/31 10:23:32;;;;;;;7.22;5.50;;;19.80;88.80;;;;;;5050221;28;20029;-79
2023/08/31 10:25:58;;;;;;;6.55;5.15;;;19.80;88.90;;;;;;5050679;28;20060;-78
2023/08/31 10:28:25;;;;;;;6.72;4.85;;;19.80;89.00;;;;;;5050407;28;20116;-81
2023/08/31 10:31:23;;;;;;;6.68;5.22;;;19.70;89.10;;;;;;5032658;28;20040;-79
2023/08/31 10:34:00;;;;;;;6.65;5.05;;;19.70;89.40;;;;;;4995761;28;20180;-82
2023/08/31 10:36:46;;;;;;;6.28;5.15;;;19.60;89.50;;;;;;5032348;28;20111;-80
2023/08/31 10:39:13;;;;;;;6.35;4.95;;;19.60;89.70;;;;;;5047177;28;20515;-82
2023/08/31 10:41:40;;;;;;;7.28;5.28;;;19.60;89.80;;;;;;5012349;28;20063;-79
2023/08/31 10:44:22;;;;;;;6.43;4.93;;;19.60;89.80;;;;;;5012157;28;20026;-79
2023/08/31 10:46:49;;;;;;;6.70;5.20;;;19.50;89.70;;;;;;5012139;28;20801;-80
2023/08/31 10:49:17;;;;;;;6.40;4.85;;;19.60;89.80;;;;;;5030344;28;20026;-82
2023/08/31 10:52:14;;;;;;;6.68;5.18;;;19.60;89.70;;;;;;5012638;28;20026;-78
2023/08/31 10:54:40;;;;;;;6.63;5.15;;;19.50;89.70;;;;;;5018727;28;20057;-81
2023/08/31 10:57:06;;;;;;;6.60;5.22;;;19.50;89.70;;;;;;5032952;28;20071;-82
2023/08/31 10:59:43;;;;;;;6.20;4.97;;;19.50;89.70;;;;;;5016776;28;20025;-80
2023/08/31 11:02:09;;;;;;;6.28;5.13;;;19.50;89.80;;;;;;5017006;28;20136;-80
2023/08/31 11:05:03;;;;;;;6.68;4.75;;;19.50;89.80;;;;;;5032976;28;20073;-80
2023/08/31 11:07:29;;;;;;;6.15;4.70;;;19.50;89.80;;;;;;5015292;28;20817;-79
2023/08/31 11:10:08;;;;;;;6.43;4.95;;;19.50;89.80;;;;;;5033084;28;20022;-79
2023/08/31 11:12:33;;;;;;;6.40;4.75;;;19.50;89.70;;;;;;5033568;28;20079;-80
2023/08/31 11:14:59;;;;;;;6.07;4.60;;;19.40;89.50;;;;;;5015281;28;20394;-84
2023/08/31 11:17:25;;;;;;;6.75;4.63;;;19.60;89.50;;;;;;5019176;28;20026;-81
2023/08/31 11:19:50;;;;;;;6.53;4.90;;;19.60;89.30;;;;;;5034100;28;20033;-81
2023/08/31 11:22:16;;;;;;;5.90;4.45;;;19.70;89.70;;;;;;5033828;28;20030;-81
2023/08/31 11:24:41;;;;;;;5.93;4.40;;;19.70;89.00;;;;;;5030476;28;20021;-80
2023/08/31 11:27:08;;;;;;;6.50;4.70;;;19.80;88.90;;;;;;5014543;28;20032;-81
2023/08/31 11:29:37;;;;;;;5.78;4.20;;;19.70;88.90;;;;;;5015535;28;20021;-81
2023/08/31 11:32:02;;;;;;;6.00;4.65;;;19.70;89.00;;;;;;5033531;28;20394;-83
2023/08/31 11:34:28;;;;;;;6.53;4.53;;;19.60;89.10;;;;;;5021109;28;20029;-81
2023/08/31 11:36:54;;;;;;;6.13;4.60;;;19.60;89.30;;;;;;5020893;28;20079;-80
2023/08/31 11:39:19;;;;;;;7.13;4.85;;;19.60;89.50;;;;;;5032412;28;20026;-82
2023/08/31 11:41:45;;;;;;;6.38;4.50;;;19.60;89.60;;;;;;5032211;28;20053;-80
2023/08/31 11:44:18;;;;;;;6.25;4.40;;;19.50;89.70;;;;;;5032156;28;20045;-80
2023/08/31 11:46:48;;;;;;;5.70;4.22;;;19.50;89.70;;;;;;5031410;28;20052;-79
2023/08/31 11:49:14;;;;;;;5.65;4.28;;;19.50;89.80;;;;;;5031536;28;20024;-82
2023/08/31 11:51:40;;;;;;;5.70;4.03;;;19.50;89.70;;;;;;5014511;28;20429;-80
2023/08/31 11:54:06;;;;;;;5.60;4.22;;;19.50;89.80;;;;;;5023064;28;20120;-79
2023/08/31 11:56:48;;;;;;;5.70;4.18;;;19.50;89.70;;;;;;5032445;28;20123;-79
2023/08/31 11:59:18;;;;;;;4.85;3.83;;;19.50;89.70;;;;;;5033323;28;20025;-79
2023/08/31 12:01:46;;;;;;;5.65;4.20;;;19.50;89.80;;;;;;5032781;28;20059;-79
2023/08/31 12:04:25;;;;;;;5.82;4.10;;;19.50;89.70;;;;;;5050593;28;20020;-79
2023/08/31 12:06:52;;;;;;;5.40;3.92;;;19.50;90.10;;;;;;5032275;28;20071;-78
2023/08/31 12:09:18;;;;;;;6.22;4.05;;;19.50;89.80;;;;;;5054110;28;20409;-80
2023/08/31 12:11:51;;;;;;;5.60;3.92;;;19.50;89.70;;;;;;5036660;28;20025;-80
2023/08/31 12:14:24;;;;;;;5.57;4.13;;;19.50;89.70;;;;;;5036483;28;20067;-79
2023/08/31 12:16:51;;;;;;;5.45;4.03;;;19.50;89.60;;;;;;5036158;28;20504;-84
2023/08/31 12:19:17;;;;;;;6.15;4.00;;;19.50;89.60;;;;;;5036235;28;20115;-80
2023/08/31 12:21:44;;;;;;;5.85;4.18;;;19.50;89.50;;;;;;5036010;28;20454;-79
2023/08/31 12:24:10;;;;;;;5.50;3.90;;;19.50;89.60;;;;;;5053841;28;20052;-79
2023/08/31 12:26:35;;;;;;;5.57;4.03;;;19.50;89.60;;;;;;5054085;28;20056;-82
2023/08/31 12:29:04;;;;;;;5.38;3.90;;;19.50;89.50;;;;;;5036063;28;20028;-79
2023/08/31 12:31:30;;;;;;;5.57;3.83;;;19.50;89.50;;;;;;5053497;28;20048;-78
2023/08/31 12:33:56;;;;;;;5.30;3.50;;;19.50;89.40;;;;;;5035524;28;20083;-80
2023/08/31 12:36:21;;;;;;;5.93;3.40;;;19.50;89.40;;;;;;5051844;28;20033;-79
2023/08/31 12:38:47;;;;;;;5.68;3.50;;;19.60;89.40;;;;;;5015627;28;20390;-80
2023/08/31 12:41:13;;;;;;;6.05;4.20;;;19.60;89.40;;;;;;5015295;28;20079;-79
2023/08/31 12:43:38;;;;;;;4.93;3.33;;;19.60;89.40;;;;;;5015526;28;20551;-79
2023/08/31 12:46:07;;;;;;;5.05;3.50;;;19.60;89.40;;;;;;5015280;28;20030;-78
2023/08/31 12:48:33;;;;;;;5.45;3.30;;;19.50;89.30;;;;;;5015369;28;20025;-79
2023/08/31 12:50:58;;;;;;;4.47;3.30;;;19.50;89.40;;;;;;5015592;28;20030;-79
2023/08/31 12:53:24;;;;;;;5.10;3.30;;;19.60;89.50;;;;;;5033009;28;20034;-80
2023/08/31 12:55:50;;;;;;;5.65;3.40;;;19.60;89.40;;;;;;5033059;28;20029;-79
2023/08/31 12:58:16;;;;;;;4.80;3.30;;;19.50;89.50;;;;;;5015371;28;20037;-80